Time,TemperatureF,DewpointF,PressureIn,WindDirection,WindDirectionDegrees,WindSpeedMPH,WindSpeedGustMPH,Humidity,HourlyPrecipIn,Conditions,Clouds,dailyrainin,SolarRadiationWatts/m^2,SoftwareType,DateUTC
2013-03-08 00:02:00,29.3,7.9,29.91,NW,322,5.0,8.0,40,0.00,,,0.00,0.0,meteohub,2013-03-08 07:02:00,
2013-03-08 00:07:00,28.4,8.2,29.91,NW,322,4.0,8.0,42,0.00,,,0.00,0.0,meteohub,2013-03-08 07:07:00,
2013-03-08 00:12:00,27.7,8.6,29.91,NW,322,2.0,7.0,44,0.00,,,0.00,0.0,meteohub,2013-03-08 07:12:00,
2013-03-08 00:17:00,27.3,7.7,29.91,NW,322,4.0,7.0,43,0.00,,,0.00,0.0,meteohub,2013-03-08 07:17:00,
2013-03-08 00:22:00,27.0,9.5,29.91,NW,322,5.0,7.0,47,0.00,,,0.00,0.0,meteohub,2013-03-08 07:22:00,
2013-03-08 00:28:00,27.1,7.2,29.91,NW,322,4.0,7.0,42,0.00,,,0.00,0.0,meteohub,2013-03-08 07:28:00,
2013-03-08 00:33:00,27.5,7.9,29.91,NW,322,7.0,7.0,43,0.00,,,0.00,0.0,meteohub,2013-03-08 07:33:00,
2013-03-08 00:38:00,27.1,7.2,29.91,NW,322,8.0,8.0,42,0.00,,,0.00,0.0,meteohub,2013-03-08 07:38:00,
2013-03-08 00:58:00,28.4,6.6,29.91,NW,322,4.0,8.0,39,0.00,,,0.00,0.0,meteohub,2013-03-08 07:58:00,
2013-03-08 01:03:00,28.0,7.9,29.91,NW,322,6.0,8.0,42,0.00,,,0.00,0.0,meteohub,2013-03-08 08:03:00,
2013-03-08 01:37:00,28.6,7.9,29.91,NW,311,6.0,8.0,41,0.00,,,0.00,0.0,meteohub,2013-03-08 08:37:00,
2013-03-08 01:42:00,28.2,8.1,29.90,NW,311,1.0,8.0,42,0.00,,,0.00,0.0,meteohub,2013-03-08 08:42:00,
2013-03-08 01:47:00,28.0,8.4,29.90,NW,311,2.0,8.0,43,0.00,,,0.00,0.0,meteohub,2013-03-08 08:47:00,
2013-03-08 01:52:00,27.7,8.1,29.90,NW,311,2.0,7.0,43,0.00,,,0.00,0.0,meteohub,2013-03-08 08:52:00,
2013-03-08 01:58:00,28.0,8.4,29.90,NW,311,0.0,7.0,43,0.00,,,0.00,0.0,meteohub,2013-03-08 08:58:00,
2013-03-08 02:03:00,28.0,11.3,29.90,NW,311,0.0,7.0,49,0.00,,,0.00,0.0,meteohub,2013-03-08 09:03:00,
2013-03-08 02:08:00,27.7,8.6,29.89,NW,311,0.0,7.0,44,0.00,,,0.00,0.0,meteohub,2013-03-08 09:08:00,
2013-03-08 02:13:00,27.5,9.5,29.89,NW,311,5.0,5.0,46,0.00,,,0.00,0.0,meteohub,2013-03-08 09:13:00,
2013-03-08 02:18:00,27.0,9.5,29.89,NW,311,5.0,6.0,47,0.00,,,0.00,0.0,meteohub,2013-03-08 09:18:00,
2013-03-08 02:24:00,26.8,9.7,29.89,NW,311,4.0,7.0,48,0.00,,,0.00,0.0,meteohub,2013-03-08 09:24:00,
2013-03-08 02:29:00,27.1,9.5,29.89,NW,311,5.0,7.0,47,0.00,,,0.00,0.0,meteohub,2013-03-08 09:29:00,
2013-03-08 02:34:00,27.0,10.4,29.89,NW,311,4.0,7.0,49,0.00,,,0.00,0.0,meteohub,2013-03-08 09:34:00,
2013-03-08 02:40:00,26.8,10.2,29.89,NW,311,4.0,7.0,49,0.00,,,0.00,0.0,meteohub,2013-03-08 09:40:00,
2013-03-08 02:45:00,27.0,10.4,29.89,NW,311,4.0,6.0,49,0.00,,,0.00,0.0,meteohub,2013-03-08 09:45:00,
2013-03-08 02:59:00,27.3,10.8,29.88,NW,311,1.0,7.0,49,0.00,,,0.00,0.0,meteohub,2013-03-08 09:59:00,
2013-03-08 03:04:00,27.3,10.8,29.88,NW,311,2.0,7.0,49,0.00,,,0.00,0.0,meteohub,2013-03-08 10:04:00,
2013-03-08 03:09:00,27.3,10.8,29.88,NW,311,4.0,7.0,49,0.00,,,0.00,0.0,meteohub,2013-03-08 10:09:00,
2013-03-08 03:15:00,27.1,11.5,29.88,NW,311,4.0,6.0,51,0.00,,,0.00,0.0,meteohub,2013-03-08 10:15:00,
2013-03-08 03:20:00,26.4,11.1,29.88,NW,311,2.0,5.0,52,0.00,,,0.00,0.0,meteohub,2013-03-08 10:20:00,
2013-03-08 03:25:00,26.2,10.2,29.88,NW,311,6.0,6.0,50,0.00,,,0.00,0.0,meteohub,2013-03-08 10:25:00,
2013-03-08 03:30:00,27.5,9.5,29.88,NW,311,7.0,7.0,46,0.00,,,0.00,0.0,meteohub,2013-03-08 10:30:00,
2013-03-08 03:35:00,28.9,10.2,29.88,NW,312,6.0,8.0,45,0.00,,,0.00,0.0,meteohub,2013-03-08 10:35:00,
2013-03-08 03:40:00,29.1,9.9,29.89,NW,312,6.0,8.0,44,0.00,,,0.00,0.0,meteohub,2013-03-08 10:40:00,
2013-03-08 03:46:00,28.9,10.2,29.89,NW,312,3.0,8.0,45,0.00,,,0.00,0.0,meteohub,2013-03-08 10:46:00,
2013-03-08 03:51:00,29.1,9.9,29.89,NW,312,6.0,8.0,44,0.00,,,0.00,0.0,meteohub,2013-03-08 10:51:00,
2013-03-08 03:56:00,29.3,10.0,29.89,NW,312,5.0,8.0,44,0.00,,,0.00,0.0,meteohub,2013-03-08 10:56:00,
2013-03-08 04:01:00,29.1,10.4,29.89,NW,312,5.0,8.0,45,0.00,,,0.00,0.0,meteohub,2013-03-08 11:01:00,
2013-03-08 04:06:00,28.8,10.6,29.89,NW,312,5.0,8.0,46,0.00,,,0.00,0.0,meteohub,2013-03-08 11:06:00,
2013-03-08 04:12:00,28.8,10.0,29.89,NW,312,5.0,7.0,45,0.00,,,0.00,0.0,meteohub,2013-03-08 11:12:00,
2013-03-08 04:17:00,28.9,10.2,29.89,NW,312,2.0,7.0,45,0.00,,,0.00,0.0,meteohub,2013-03-08 11:17:00,
2013-03-08 04:22:00,28.9,10.2,29.89,NW,312,0.0,7.0,45,0.00,,,0.00,0.0,meteohub,2013-03-08 11:22:00,
2013-03-08 04:27:00,28.8,10.0,29.89,NW,312,6.0,7.0,45,0.00,,,0.00,0.0,meteohub,2013-03-08 11:27:00,
2013-03-08 04:32:00,28.8,11.1,29.89,NW,312,4.0,6.0,47,0.00,,,0.00,0.0,meteohub,2013-03-08 11:32:00,
2013-03-08 04:38:00,28.0,11.3,29.89,NW,312,0.0,6.0,49,0.00,,,0.00,0.0,meteohub,2013-03-08 11:38:00,
2013-03-08 04:43:00,27.9,9.3,29.89,NW,312,0.0,6.0,45,0.00,,,0.00,0.0,meteohub,2013-03-08 11:43:00,
2013-03-08 04:48:00,28.2,10.6,29.89,NW,312,2.0,6.0,47,0.00,,,0.00,0.0,meteohub,2013-03-08 11:48:00,
2013-03-08 04:53:00,28.2,10.6,29.90,NW,312,0.0,5.0,47,0.00,,,0.00,0.0,meteohub,2013-03-08 11:53:00,
2013-03-08 04:58:00,27.9,9.7,29.89,NW,312,1.0,5.0,46,0.00,,,0.00,0.0,meteohub,2013-03-08 11:58:00,
2013-03-08 05:04:00,28.0,11.3,29.90,NW,312,4.0,5.0,49,0.00,,,0.00,0.0,meteohub,2013-03-08 12:04:00,
2013-03-08 05:09:00,27.0,11.3,29.90,NW,312,0.0,5.0,51,0.00,,,0.00,0.0,meteohub,2013-03-08 12:09:00,
2013-03-08 05:14:00,26.2,12.2,29.90,NW,312,1.0,5.0,55,0.00,,,0.00,0.0,meteohub,2013-03-08 12:14:00,
2013-03-08 05:19:00,25.7,11.8,29.90,NW,312,0.0,5.0,55,0.00,,,0.00,0.0,meteohub,2013-03-08 12:19:00,
2013-03-08 05:24:00,25.3,12.2,29.90,NW,312,2.0,5.0,57,0.00,,,0.00,0.0,meteohub,2013-03-08 12:24:00,
2013-03-08 05:30:00,25.0,12.4,29.90,NW,312,4.0,5.0,58,0.00,,,0.00,0.0,meteohub,2013-03-08 12:30:00,
2013-03-08 05:35:00,25.0,12.7,29.89,NW,312,4.0,5.0,59,0.00,,,0.00,0.0,meteohub,2013-03-08 12:35:00,
2013-03-08 05:40:00,24.6,12.7,29.89,NW,312,3.0,5.0,60,0.00,,,0.00,0.0,meteohub,2013-03-08 12:40:00,
2013-03-08 05:45:00,24.3,12.4,29.89,NW,312,2.0,5.0,60,0.00,,,0.00,0.0,meteohub,2013-03-08 12:45:00,
2013-03-08 05:51:00,23.9,12.0,29.90,NW,312,4.0,5.0,60,0.00,,,0.00,0.0,meteohub,2013-03-08 12:51:00,
2013-03-08 05:56:00,23.7,12.2,29.89,NW,312,2.0,5.0,61,0.00,,,0.00,0.0,meteohub,2013-03-08 12:56:00,
2013-03-08 06:01:00,23.5,12.0,29.90,NW,312,2.0,5.0,61,0.00,,,0.00,0.0,meteohub,2013-03-08 13:01:00,
2013-03-08 06:06:00,23.7,11.5,29.90,NW,312,5.0,5.0,59,0.00,,,0.00,0.0,meteohub,2013-03-08 13:06:00,
2013-03-08 06:11:00,25.3,10.9,29.90,NW,312,6.0,6.0,54,0.00,,,0.00,0.0,meteohub,2013-03-08 13:11:00,
2013-03-08 06:17:00,26.8,11.5,29.90,NW,312,4.0,7.0,52,0.00,,,0.00,0.0,meteohub,2013-03-08 13:17:00,
2013-03-08 06:22:00,27.1,10.9,29.90,NW,312,5.0,7.0,50,0.00,,,0.00,0.0,meteohub,2013-03-08 13:22:00,
2013-03-08 06:27:00,27.1,10.9,29.89,NW,312,5.0,7.0,50,0.00,,,0.00,0.0,meteohub,2013-03-08 13:27:00,
2013-03-08 06:32:00,27.0,11.7,29.89,NW,312,6.0,7.0,52,0.00,,,0.00,7.0,meteohub,2013-03-08 13:32:00,
2013-03-08 06:38:00,26.6,11.3,29.89,NW,312,6.0,7.0,52,0.00,,,0.00,11.0,meteohub,2013-03-08 13:38:00,
2013-03-08 06:43:00,26.1,12.0,29.89,NW,312,6.0,8.0,55,0.00,,,0.00,16.0,meteohub,2013-03-08 13:43:00,
2013-03-08 06:48:00,25.3,12.2,29.89,NW,312,5.0,8.0,57,0.00,,,0.00,21.0,meteohub,2013-03-08 13:48:00,
2013-03-08 06:53:00,25.0,12.7,29.89,NW,312,4.0,8.0,59,0.00,,,0.00,30.0,meteohub,2013-03-08 13:53:00,
2013-03-08 06:58:00,25.2,12.4,29.89,NW,312,0.0,7.0,58,0.00,,,0.00,37.0,meteohub,2013-03-08 13:58:00,
2013-03-08 07:04:00,25.5,12.7,29.89,NW,312,0.0,7.0,58,0.00,,,0.00,40.0,meteohub,2013-03-08 14:04:00,
2013-03-08 07:09:00,25.9,12.4,29.90,NW,312,1.0,7.0,56,0.00,,,0.00,37.0,meteohub,2013-03-08 14:09:00,
2013-03-08 07:14:00,27.1,12.7,29.90,NW,312,2.0,5.0,54,0.00,,,0.00,51.0,meteohub,2013-03-08 14:14:00,
2013-03-08 07:19:00,27.3,13.6,29.90,NW,312,3.0,4.0,56,0.00,,,0.00,40.0,meteohub,2013-03-08 14:19:00,
2013-03-08 07:24:00,27.1,14.0,29.89,NW,312,2.0,4.0,57,0.00,,,0.00,46.0,meteohub,2013-03-08 14:24:00,
2013-03-08 07:30:00,27.3,14.9,29.89,NW,312,1.0,5.0,59,0.00,,,0.00,62.0,meteohub,2013-03-08 14:30:00,
2013-03-08 07:35:00,27.3,14.2,29.89,NW,312,0.0,5.0,57,0.00,,,0.00,56.0,meteohub,2013-03-08 14:35:00,
2013-03-08 07:40:00,27.7,13.6,29.89,NW,312,0.0,4.0,55,0.00,,,0.00,49.0,meteohub,2013-03-08 14:40:00,
2013-03-08 07:45:00,27.9,12.9,29.90,NW,312,0.0,4.0,53,0.00,,,0.00,58.0,meteohub,2013-03-08 14:45:00,
2013-03-08 07:50:00,28.8,12.0,29.89,NW,312,2.0,2.0,49,0.00,,,0.00,62.0,meteohub,2013-03-08 14:50:00,
2013-03-08 07:56:00,30.0,14.0,29.89,NW,312,6.0,6.0,51,0.00,,,0.00,60.0,meteohub,2013-03-08 14:56:00,
2013-03-08 08:01:00,30.4,14.4,29.89,NW,312,1.0,6.0,51,0.00,,,0.00,63.0,meteohub,2013-03-08 15:01:00,
2013-03-08 08:06:00,31.3,12.9,29.89,NW,312,0.0,6.0,46,0.00,,,0.00,74.0,meteohub,2013-03-08 15:06:00,
2013-03-08 08:11:00,31.6,13.6,29.88,NW,312,1.0,6.0,47,0.00,,,0.00,88.0,meteohub,2013-03-08 15:11:00,
2013-03-08 08:17:00,32.2,13.6,29.88,NW,312,0.0,5.0,46,0.00,,,0.00,98.0,meteohub,2013-03-08 15:17:00,
2013-03-08 08:22:00,32.4,14.4,29.88,NW,312,0.0,5.0,47,0.00,,,0.00,105.0,meteohub,2013-03-08 15:22:00,
2013-03-08 08:27:00,32.4,14.9,29.88,NW,312,5.0,5.0,48,0.00,,,0.00,102.0,meteohub,2013-03-08 15:27:00,
2013-03-08 08:32:00,32.5,14.0,29.88,NW,312,0.0,5.0,46,0.00,,,0.00,105.0,meteohub,2013-03-08 15:32:00,
2013-03-08 08:37:00,32.7,15.6,29.88,NW,312,3.0,5.0,49,0.00,,,0.00,107.0,meteohub,2013-03-08 15:37:00,
2013-03-08 08:43:00,33.1,15.4,29.88,NW,312,2.0,5.0,48,0.00,,,0.00,109.0,meteohub,2013-03-08 15:43:00,
2013-03-08 08:48:00,33.8,14.2,29.89,NW,312,0.0,5.0,44,0.00,,,0.00,120.0,meteohub,2013-03-08 15:48:00,
2013-03-08 08:53:00,34.3,13.1,29.88,NW,312,4.0,5.0,41,0.00,,,0.00,125.0,meteohub,2013-03-08 15:53:00,
2013-03-08 08:58:00,36.0,12.7,29.88,NW,312,4.0,4.0,38,0.00,,,0.00,134.0,meteohub,2013-03-08 15:58:00,
2013-03-08 09:04:00,36.7,13.5,29.88,NW,312,6.0,6.0,38,0.00,,,0.00,130.0,meteohub,2013-03-08 16:04:00,
2013-03-08 09:09:00,37.2,14.0,29.87,NW,312,4.0,6.0,38,0.00,,,0.00,118.0,meteohub,2013-03-08 16:09:00,
2013-03-08 09:14:00,37.6,14.2,29.88,NW,312,0.0,7.0,38,0.00,,,0.00,116.0,meteohub,2013-03-08 16:14:00,
2013-03-08 09:20:00,37.8,14.4,29.87,NW,312,0.0,7.0,38,0.00,,,0.00,125.0,meteohub,2013-03-08 16:20:00,
2013-03-08 09:25:00,37.8,13.3,29.87,NW,312,1.0,7.0,36,0.00,,,0.00,132.0,meteohub,2013-03-08 16:25:00,
2013-03-08 09:30:00,38.1,13.5,29.87,NW,312,1.0,5.0,36,0.00,,,0.00,125.0,meteohub,2013-03-08 16:30:00,
2013-03-08 09:35:00,38.3,13.6,29.87,NW,312,0.0,5.0,36,0.00,,,0.00,135.0,meteohub,2013-03-08 16:35:00,
2013-03-08 09:40:00,38.5,13.3,29.86,NW,312,0.0,5.0,35,0.00,,,0.00,158.0,meteohub,2013-03-08 16:40:00,
2013-03-08 09:46:00,38.8,13.5,29.87,NW,312,0.0,3.0,35,0.00,,,0.00,156.0,meteohub,2013-03-08 16:46:00,
2013-03-08 09:51:00,39.0,13.6,29.86,NW,312,1.0,6.0,35,0.00,,,0.00,153.0,meteohub,2013-03-08 16:51:00,
2013-03-08 09:56:00,39.2,13.1,29.86,NW,312,0.0,6.0,34,0.00,,,0.00,153.0,meteohub,2013-03-08 16:56:00,
2013-03-08 10:01:00,39.4,13.3,29.86,NW,312,3.0,6.0,34,0.00,,,0.00,162.0,meteohub,2013-03-08 17:01:00,
2013-03-08 10:06:00,39.6,13.5,29.85,NW,312,0.0,6.0,34,0.00,,,0.00,155.0,meteohub,2013-03-08 17:06:00,
2013-03-08 10:12:00,39.7,13.6,29.85,NW,312,0.0,6.0,34,0.00,,,0.00,163.0,meteohub,2013-03-08 17:12:00,
2013-03-08 10:17:00,39.9,13.8,29.86,NW,312,3.0,6.0,34,0.00,,,0.00,171.0,meteohub,2013-03-08 17:17:00,
2013-03-08 10:22:00,39.7,13.6,29.85,NW,312,2.0,4.0,34,0.00,,,0.00,158.0,meteohub,2013-03-08 17:22:00,
2013-03-08 10:27:00,39.7,14.4,29.85,NW,312,0.0,4.0,35,0.00,,,0.00,163.0,meteohub,2013-03-08 17:27:00,
2013-03-08 10:33:00,39.7,13.6,29.85,NW,312,0.0,4.0,34,0.00,,,0.00,178.0,meteohub,2013-03-08 17:33:00,
2013-03-08 10:38:00,39.7,14.4,29.84,NW,312,0.0,4.0,35,0.00,,,0.00,204.0,meteohub,2013-03-08 17:38:00,
2013-03-08 10:43:00,39.9,15.1,29.84,NW,312,0.0,4.0,36,0.00,,,0.00,209.0,meteohub,2013-03-08 17:43:00,
2013-03-08 10:48:00,40.3,15.4,29.84,NW,312,0.0,4.0,36,0.00,,,0.00,227.0,meteohub,2013-03-08 17:48:00,
2013-03-08 10:54:00,40.5,15.6,29.83,NW,312,0.0,4.0,36,0.00,,,0.00,251.0,meteohub,2013-03-08 17:54:00,
2013-03-08 10:59:00,40.8,15.3,29.83,NW,312,0.0,2.0,35,0.00,,,0.00,251.0,meteohub,2013-03-08 17:59:00,
2013-03-08 11:04:00,41.5,14.5,29.83,NW,312,0.0,2.0,33,0.00,,,0.00,241.0,meteohub,2013-03-08 18:04:00,
2013-03-08 11:09:00,41.5,14.5,29.83,NW,308,0.0,5.0,33,0.00,,,0.00,253.0,meteohub,2013-03-08 18:09:00,
2013-03-08 11:14:00,42.1,15.8,29.83,NW,308,0.0,5.0,34,0.00,,,0.00,265.0,meteohub,2013-03-08 18:14:00,
2013-03-08 11:20:00,42.4,14.7,29.83,NW,308,0.0,5.0,32,0.00,,,0.00,279.0,meteohub,2013-03-08 18:20:00,
2013-03-08 11:25:00,42.6,14.9,29.82,NW,308,1.0,4.0,32,0.00,,,0.00,292.0,meteohub,2013-03-08 18:25:00,
2013-03-08 11:30:00,43.0,14.4,29.81,NW,308,0.0,3.0,31,0.00,,,0.00,327.0,meteohub,2013-03-08 18:30:00,
2013-03-08 11:35:00,43.2,13.8,29.82,NW,308,4.0,4.0,30,0.00,,,0.00,341.0,meteohub,2013-03-08 18:35:00,
2013-03-08 11:40:00,43.2,14.5,29.81,NW,308,0.0,5.0,31,0.00,,,0.00,334.0,meteohub,2013-03-08 18:40:00,
2013-03-08 11:46:00,43.3,15.4,29.81,NW,308,0.0,5.0,32,0.00,,,0.00,327.0,meteohub,2013-03-08 18:46:00,
2013-03-08 11:51:00,43.3,14.0,29.81,SSW,198,4.0,6.0,30,0.00,,,0.00,401.0,meteohub,2013-03-08 18:51:00,
2013-03-08 11:56:00,43.3,14.7,29.81,SSW,198,1.0,6.0,31,0.00,,,0.00,330.0,meteohub,2013-03-08 18:56:00,
2013-03-08 12:01:00,43.5,14.2,29.81,SW,231,4.0,6.0,30,0.00,,,0.00,357.0,meteohub,2013-03-08 19:01:00,
2013-03-08 12:06:00,43.5,14.2,29.80,SW,231,1.0,6.0,30,0.00,,,0.00,343.0,meteohub,2013-03-08 19:06:00,
2013-03-08 12:12:00,43.0,15.1,29.80,West,266,2.0,7.0,32,0.00,,,0.00,323.0,meteohub,2013-03-08 19:12:00,
2013-03-08 12:17:00,42.6,14.0,29.79,SSW,197,5.0,7.0,31,0.00,,,0.00,290.0,meteohub,2013-03-08 19:17:00,
2013-03-08 12:22:00,42.3,13.8,29.79,South,180,2.0,7.0,31,0.00,,,0.00,279.0,meteohub,2013-03-08 19:22:00,
2013-03-08 12:27:00,42.3,15.3,29.78,South,180,5.0,7.0,33,0.00,,,0.00,281.0,meteohub,2013-03-08 19:27:00,
2013-03-08 12:33:00,42.1,15.8,29.78,WSW,237,2.0,7.0,34,0.00,,,0.00,283.0,meteohub,2013-03-08 19:33:00,
2013-03-08 12:38:00,42.1,14.4,29.78,WSW,237,1.0,7.0,32,0.00,,,0.00,297.0,meteohub,2013-03-08 19:38:00,
2013-03-08 12:43:00,42.3,15.3,29.78,SW,236,2.0,7.0,33,0.00,,,0.00,383.0,meteohub,2013-03-08 19:43:00,
2013-03-08 12:48:00,42.3,15.3,29.77,WSW,253,3.0,5.0,33,0.00,,,0.00,350.0,meteohub,2013-03-08 19:48:00,
2013-03-08 12:54:00,42.4,15.4,29.76,WSW,253,1.0,7.0,33,0.00,,,0.00,475.0,meteohub,2013-03-08 19:54:00,
2013-03-08 12:59:00,42.8,15.6,29.76,WSW,256,2.0,7.0,33,0.00,,,0.00,371.0,meteohub,2013-03-08 19:59:00,
2013-03-08 13:04:00,43.0,15.1,29.75,WSW,239,2.0,7.0,32,0.00,,,0.00,735.0,meteohub,2013-03-08 20:04:00,
2013-03-08 13:09:00,43.3,16.2,29.75,WSW,239,2.0,5.0,33,0.00,,,0.00,457.0,meteohub,2013-03-08 20:09:00,
2013-03-08 13:14:00,43.7,15.1,29.75,SW,226,0.0,5.0,31,0.00,,,0.00,612.0,meteohub,2013-03-08 20:14:00,
2013-03-08 13:20:00,44.1,15.3,29.74,West,268,2.0,7.0,31,0.00,,,0.00,366.0,meteohub,2013-03-08 20:20:00,
2013-03-08 13:25:00,44.4,15.6,29.74,SSE,168,3.0,7.0,31,0.00,,,0.00,469.0,meteohub,2013-03-08 20:25:00,
2013-03-08 13:30:00,44.1,14.5,29.74,South,175,2.0,7.0,30,0.00,,,0.00,536.0,meteohub,2013-03-08 20:30:00,
2013-03-08 13:35:00,43.5,15.6,29.73,SSE,156,2.0,9.0,32,0.00,,,0.00,563.0,meteohub,2013-03-08 20:35:00,
2013-03-08 13:40:00,43.9,16.7,29.73,South,171,4.0,9.0,33,0.00,,,0.00,541.0,meteohub,2013-03-08 20:40:00,
2013-03-08 13:46:00,44.1,16.7,29.72,South,171,1.0,8.0,33,0.00,,,0.00,527.0,meteohub,2013-03-08 20:46:00,
2013-03-08 13:51:00,44.1,16.2,29.72,South,180,5.0,7.0,32,0.00,,,0.00,601.0,meteohub,2013-03-08 20:51:00,
2013-03-08 13:56:00,44.1,16.7,29.72,South,175,0.0,8.0,33,0.00,,,0.00,464.0,meteohub,2013-03-08 20:56:00,
2013-03-08 14:01:00,44.2,16.2,29.72,SW,234,6.0,8.0,32,0.00,,,0.00,680.0,meteohub,2013-03-08 21:01:00,
2013-03-08 14:07:00,44.1,16.7,29.72,SW,216,0.0,8.0,33,0.00,,,0.00,538.0,meteohub,2013-03-08 21:07:00,
2013-03-08 14:12:00,43.5,19.0,29.72,South,171,4.0,9.0,37,0.00,,,0.00,436.0,meteohub,2013-03-08 21:12:00,
2013-03-08 14:17:00,42.6,19.4,29.72,SE,146,7.0,9.0,39,0.00,,,0.00,385.0,meteohub,2013-03-08 21:17:00,
2013-03-08 14:22:00,41.5,19.0,29.72,SE,136,4.0,9.0,40,0.00,,,0.00,315.0,meteohub,2013-03-08 21:22:00,
2013-03-08 14:28:00,40.6,18.9,29.72,SSE,155,2.0,10.0,41,0.00,,,0.00,200.0,meteohub,2013-03-08 21:28:00,
2013-03-08 14:33:00,40.1,19.4,29.72,SSE,158,0.0,10.0,43,0.00,,,0.00,269.0,meteohub,2013-03-08 21:33:00,
2013-03-08 14:38:00,39.9,18.7,29.72,SSE,158,1.0,10.0,42,0.00,,,0.00,262.0,meteohub,2013-03-08 21:38:00,
2013-03-08 14:43:00,39.7,18.5,29.72,SSE,158,0.0,8.0,42,0.00,,,0.00,214.0,meteohub,2013-03-08 21:43:00,
2013-03-08 14:48:00,39.6,18.9,29.73,SSE,158,0.0,5.0,43,0.00,,,0.00,163.0,meteohub,2013-03-08 21:48:00,
2013-03-08 14:54:00,39.2,19.0,29.73,SSE,160,0.0,5.0,44,0.00,,,0.00,155.0,meteohub,2013-03-08 21:54:00,
2013-03-08 14:59:00,38.7,18.7,29.73,SSE,160,2.0,5.0,44,0.00,,,0.00,148.0,meteohub,2013-03-08 21:59:00,
2013-03-08 15:04:00,38.1,19.2,29.73,SSE,160,0.0,5.0,46,0.00,,,0.00,183.0,meteohub,2013-03-08 22:04:00,
2013-03-08 15:09:00,37.9,19.6,29.73,SSE,160,0.0,5.0,47,0.00,,,0.00,127.0,meteohub,2013-03-08 22:09:00,
2013-03-08 15:15:00,37.9,19.0,29.73,SSE,160,0.0,5.0,46,0.00,,,0.00,114.0,meteohub,2013-03-08 22:15:00,
2013-03-08 15:20:00,37.9,20.5,29.73,SSE,160,1.0,2.0,49,0.00,,,0.00,105.0,meteohub,2013-03-08 22:20:00,
2013-03-08 15:25:00,37.8,20.3,29.73,SSE,160,2.0,6.0,49,0.00,,,0.00,98.0,meteohub,2013-03-08 22:25:00,
2013-03-08 15:30:00,37.4,21.4,29.73,SSE,160,0.0,6.0,52,0.00,,,0.00,86.0,meteohub,2013-03-08 22:30:00,
2013-03-08 15:36:00,37.2,21.2,29.73,SSE,160,1.0,6.0,52,0.00,,,0.00,93.0,meteohub,2013-03-08 22:36:00,
2013-03-08 15:41:00,37.0,20.7,29.73,SSE,160,0.0,4.0,51,0.00,,,0.00,60.0,meteohub,2013-03-08 22:41:00,
2013-03-08 15:46:00,37.0,20.7,29.73,SSE,160,0.0,4.0,51,0.00,,,0.00,60.0,meteohub,2013-03-08 22:46:00,
2013-03-08 15:51:00,37.0,21.0,29.73,North,-999,-999.0,3.0,52,0.00,,,0.00,37.0,meteohub,2013-03-08 22:51:00,
2013-03-08 15:56:00,36.9,21.7,29.73,SSE,160,0.0,1.0,54,0.00,,,0.00,28.0,meteohub,2013-03-08 22:56:00,
2013-03-08 16:02:00,36.9,21.7,29.73,SSE,159,5.0,5.0,54,0.00,,,0.00,63.0,meteohub,2013-03-08 23:02:00,
2013-03-08 16:07:00,36.9,22.6,29.72,SSE,156,1.0,5.0,56,0.00,,,0.00,107.0,meteohub,2013-03-08 23:07:00,
2013-03-08 16:12:00,36.9,23.5,29.72,SSE,156,4.0,6.0,58,0.00,,,0.00,113.0,meteohub,2013-03-08 23:12:00,
2013-03-08 16:17:00,37.0,23.7,29.72,SSE,156,0.0,6.0,58,0.00,,,0.00,102.0,meteohub,2013-03-08 23:17:00,
2013-03-08 16:23:00,37.2,23.4,29.72,SSE,156,1.0,6.0,57,0.00,,,0.00,102.0,meteohub,2013-03-08 23:23:00,
2013-03-08 16:28:00,37.8,23.5,29.71,SSE,156,3.0,4.0,56,0.00,,,0.00,97.0,meteohub,2013-03-08 23:28:00,
2013-03-08 16:33:00,37.8,23.9,29.71,SE,135,0.0,5.0,57,0.00,,,0.00,98.0,meteohub,2013-03-08 23:33:00,
2013-03-08 16:38:00,37.8,23.9,29.71,SE,135,0.0,6.0,57,0.00,,,0.00,81.0,meteohub,2013-03-08 23:38:00,
2013-03-08 16:43:00,37.6,24.1,29.70,SE,135,0.0,6.0,58,0.00,,,0.00,69.0,meteohub,2013-03-08 23:43:00,
2013-03-08 16:49:00,37.4,24.8,29.70,SE,135,0.0,6.0,60,0.00,,,0.00,58.0,meteohub,2013-03-08 23:49:00,
2013-03-08 16:54:00,37.2,24.6,29.70,SE,135,0.0,5.0,60,0.00,,,0.00,51.0,meteohub,2013-03-08 23:54:00,
2013-03-08 16:59:00,37.2,24.6,29.70,SE,135,0.0,4.0,60,0.00,,,0.00,46.0,meteohub,2013-03-08 23:59:00,
2013-03-08 17:04:00,37.0,24.8,29.70,SE,135,0.0,4.0,61,0.00,,,0.00,46.0,meteohub,2013-03-09 00:04:00,
2013-03-08 17:10:00,37.0,24.8,29.70,SE,135,0.0,4.0,61,0.00,,,0.00,47.0,meteohub,2013-03-09 00:10:00,
2013-03-08 17:15:00,37.0,24.8,29.70,North,-999,-999.0,0.0,61,0.00,,,0.00,69.0,meteohub,2013-03-09 00:15:00,
2013-03-08 17:20:00,36.3,23.7,29.70,SSW,199,2.0,0.0,60,0.00,,,0.00,69.0,meteohub,2013-03-09 00:20:00,
2013-03-08 17:25:00,35.4,23.7,29.70,SSW,204,1.0,5.0,62,0.00,,,0.00,44.0,meteohub,2013-03-09 00:25:00,
2013-03-08 17:31:00,34.7,24.4,29.70,SSW,208,2.0,5.0,66,0.00,,,0.00,28.0,meteohub,2013-03-09 00:31:00,
2013-03-08 17:36:00,33.8,24.1,29.71,SSW,208,0.0,5.0,67,0.00,,,0.00,19.0,meteohub,2013-03-09 00:36:00,
2013-03-08 17:41:00,33.3,24.6,29.71,SSW,208,4.0,5.0,70,0.00,,,0.00,12.0,meteohub,2013-03-09 00:41:00,
2013-03-08 17:47:00,32.5,24.4,29.70,NW,306,6.0,7.0,72,0.00,,,0.00,11.0,meteohub,2013-03-09 00:47:00,
2013-03-08 17:52:00,31.6,24.6,29.72,NW,306,6.0,9.0,75,0.00,,,0.00,5.0,meteohub,2013-03-09 00:52:00,
2013-03-08 17:57:00,31.5,24.8,29.72,NW,306,0.0,9.0,76,0.00,,,0.00,0.0,meteohub,2013-03-09 00:57:00,
2013-03-08 18:02:00,31.1,24.8,29.72,NW,306,0.0,6.0,77,0.00,,,0.00,0.0,meteohub,2013-03-09 01:02:00,
2013-03-08 18:07:00,30.7,25.0,29.72,NW,306,5.0,5.0,79,0.00,,,0.00,0.0,meteohub,2013-03-09 01:07:00,
2013-03-08 18:13:00,30.4,25.0,29.71,NW,306,1.0,7.0,80,0.00,,,0.00,0.0,meteohub,2013-03-09 01:13:00,
2013-03-08 18:18:00,30.2,24.8,29.71,NW,306,1.0,7.0,80,0.00,,,0.00,0.0,meteohub,2013-03-09 01:18:00,
2013-03-08 18:23:00,30.0,25.0,29.71,NW,306,4.0,7.0,81,0.00,,,0.00,0.0,meteohub,2013-03-09 01:23:00,
2013-03-08 18:28:00,29.8,24.8,29.72,NW,306,2.0,4.0,81,0.00,,,0.00,0.0,meteohub,2013-03-09 01:28:00,
2013-03-08 18:34:00,29.7,24.8,29.72,NW,306,2.0,5.0,82,0.00,,,0.00,0.0,meteohub,2013-03-09 01:34:00,
2013-03-08 18:39:00,29.5,25.0,29.71,NW,306,2.0,5.0,83,0.00,,,0.00,0.0,meteohub,2013-03-09 01:39:00,
2013-03-08 18:44:00,29.3,25.2,29.71,NW,306,4.0,6.0,84,0.00,,,0.00,0.0,meteohub,2013-03-09 01:44:00,
2013-03-08 18:49:00,29.1,25.0,29.72,NW,306,0.0,6.0,84,0.00,,,0.00,0.0,meteohub,2013-03-09 01:49:00,
2013-03-08 18:55:00,29.1,25.0,29.71,NW,306,6.0,6.0,84,0.00,,,0.00,0.0,meteohub,2013-03-09 01:55:00,
2013-03-08 19:00:00,28.9,24.8,29.71,NW,306,0.0,6.0,84,0.00,,,0.00,0.0,meteohub,2013-03-09 02:00:00,
2013-03-08 19:05:00,28.8,24.6,29.71,NW,306,0.0,6.0,84,0.00,,,0.00,0.0,meteohub,2013-03-09 02:05:00,
2013-03-08 19:10:00,28.6,24.6,29.71,NW,306,0.0,5.0,85,0.00,,,0.00,0.0,meteohub,2013-03-09 02:10:00,
2013-03-08 19:16:00,28.4,24.4,29.72,NW,306,0.0,2.0,85,0.00,,,0.00,0.0,meteohub,2013-03-09 02:16:00,
2013-03-08 19:21:00,28.2,24.3,29.72,NW,306,0.0,1.0,85,0.00,,,0.00,0.0,meteohub,2013-03-09 02:21:00,
2013-03-08 19:26:00,28.2,24.6,29.71,NW,306,0.0,1.0,86,0.00,,,0.00,0.0,meteohub,2013-03-09 02:26:00,
2013-03-08 19:31:00,28.0,24.6,29.72,North,-999,-999.0,1.0,87,0.00,,,0.00,0.0,meteohub,2013-03-09 02:31:00,
2013-03-08 19:37:00,27.9,24.4,29.71,NW,306,0.0,1.0,87,0.00,,,0.00,0.0,meteohub,2013-03-09 02:37:00,
2013-03-08 19:42:00,27.9,24.4,29.71,NW,306,0.0,0.0,87,0.00,,,0.00,0.0,meteohub,2013-03-09 02:42:00,
2013-03-08 19:47:00,27.7,24.6,29.71,NW,306,0.0,1.0,88,0.00,,,0.00,0.0,meteohub,2013-03-09 02:47:00,
2013-03-08 19:52:00,27.5,24.4,29.70,NW,306,0.0,3.0,88,0.00,,,0.00,0.0,meteohub,2013-03-09 02:52:00,
2013-03-08 19:57:00,27.5,24.4,29.70,NW,306,0.0,3.0,88,0.00,,,0.00,0.0,meteohub,2013-03-09 02:57:00,
2013-03-08 20:03:00,27.3,24.4,29.70,North,-999,-999.0,3.0,89,0.00,,,0.00,0.0,meteohub,2013-03-09 03:03:00,
2013-03-08 20:08:00,27.3,24.3,29.70,NW,306,0.0,0.0,88,0.00,,,0.00,0.0,meteohub,2013-03-09 03:08:00,
2013-03-08 20:13:00,27.3,24.3,29.70,NW,306,0.0,0.0,88,0.00,,,0.00,0.0,meteohub,2013-03-09 03:13:00,
2013-03-08 20:18:00,27.3,24.3,29.70,NW,306,0.0,0.0,88,0.00,,,0.00,0.0,meteohub,2013-03-09 03:18:00,
2013-03-08 20:23:00,27.3,24.3,29.70,NW,306,0.0,0.0,88,0.00,,,0.00,0.0,meteohub,2013-03-09 03:23:00,
2013-03-08 20:29:00,27.3,23.9,29.70,NW,306,0.0,1.0,87,0.00,,,0.00,0.0,meteohub,2013-03-09 03:29:00,
2013-03-08 20:34:00,27.3,23.9,29.70,NW,306,0.0,1.0,87,0.00,,,0.00,0.0,meteohub,2013-03-09 03:34:00,
2013-03-08 20:39:00,27.1,23.7,29.70,NW,306,0.0,1.0,87,0.00,,,0.00,0.0,meteohub,2013-03-09 03:39:00,
2013-03-08 20:44:00,27.1,23.7,29.70,NW,306,0.0,1.0,87,0.00,,,0.00,0.0,meteohub,2013-03-09 03:44:00,
2013-03-08 20:49:00,27.1,24.1,29.70,NW,306,0.0,0.0,88,0.00,,,0.00,0.0,meteohub,2013-03-09 03:49:00,
2013-03-08 20:55:00,27.0,23.9,29.70,NW,306,0.0,0.0,88,0.00,,,0.00,0.0,meteohub,2013-03-09 03:55:00,
2013-03-08 21:00:00,27.0,23.9,29.70,NW,306,0.0,0.0,88,0.00,,,0.00,0.0,meteohub,2013-03-09 04:00:00,
2013-03-08 21:05:00,26.8,23.7,29.70,NW,306,0.0,0.0,88,0.00,,,0.00,0.0,meteohub,2013-03-09 04:05:00,
2013-03-08 21:10:00,26.8,23.9,29.70,NW,306,2.0,4.0,89,0.00,,,0.00,0.0,meteohub,2013-03-09 04:10:00,
2013-03-08 21:15:00,26.8,23.7,29.70,NW,306,0.0,4.0,88,0.00,,,0.00,0.0,meteohub,2013-03-09 04:15:00,
2013-03-08 21:21:00,26.8,23.9,29.71,NW,306,0.0,4.0,89,0.00,,,0.00,0.0,meteohub,2013-03-09 04:21:00,
2013-03-08 21:26:00,26.8,23.7,29.70,NW,306,0.0,3.0,88,0.00,,,0.00,0.0,meteohub,2013-03-09 04:26:00,
2013-03-08 21:31:00,27.0,23.9,29.70,NW,306,2.0,4.0,88,0.00,,,0.00,0.0,meteohub,2013-03-09 04:31:00,
2013-03-08 21:36:00,26.8,23.4,29.70,NW,306,0.0,6.0,87,0.00,,,0.00,0.0,meteohub,2013-03-09 04:36:00,
2013-03-08 21:41:00,26.4,23.0,29.70,NW,306,0.0,6.0,87,0.00,,,0.00,0.0,meteohub,2013-03-09 04:41:00,
2013-03-08 21:47:00,26.4,23.0,29.69,NW,306,0.0,4.0,87,0.00,,,0.00,0.0,meteohub,2013-03-09 04:47:00,
2013-03-08 21:52:00,26.2,22.8,29.69,NW,306,0.0,1.0,87,0.00,,,0.00,0.0,meteohub,2013-03-09 04:52:00,
2013-03-08 21:57:00,26.1,22.5,29.69,NW,306,0.0,0.0,86,0.00,,,0.00,0.0,meteohub,2013-03-09 04:57:00,
2013-03-08 22:00:00,25.9,22.3,29.69,NW,306,0.0,0.0,86,0.00,,,0.00,0.0,meteohub,2013-03-09 05:00:00,
2013-03-08 22:01:00,25.9,22.3,29.69,NW,306,0.0,0.0,86,0.00,,,0.00,0.0,meteohub,2013-03-09 05:01:00,
2013-03-08 22:04:00,25.7,22.5,29.69,NW,306,0.0,0.0,87,0.00,,,0.00,0.0,meteohub,2013-03-09 05:04:00,
2013-03-08 22:09:00,25.5,22.3,29.68,NW,306,0.0,0.0,87,0.00,,,0.00,0.0,meteohub,2013-03-09 05:09:00,
2013-03-08 22:14:00,25.3,22.1,29.68,NW,306,0.0,0.0,87,0.00,,,0.00,0.0,meteohub,2013-03-09 05:14:00,
2013-03-08 22:19:00,25.2,22.1,29.68,NW,306,0.0,0.0,88,0.00,,,0.00,0.0,meteohub,2013-03-09 05:19:00,
2013-03-08 22:25:00,25.0,21.9,29.68,NW,306,2.0,0.0,88,0.00,,,0.00,0.0,meteohub,2013-03-09 05:25:00,
2013-03-08 22:30:00,24.4,21.4,29.68,NW,306,0.0,2.0,88,0.00,,,0.00,0.0,meteohub,2013-03-09 05:30:00,
2013-03-08 22:35:00,24.3,21.6,29.68,NW,306,0.0,2.0,89,0.00,,,0.00,0.0,meteohub,2013-03-09 05:35:00,
2013-03-08 22:40:00,24.1,21.0,29.68,NW,306,0.0,4.0,88,0.00,,,0.00,0.0,meteohub,2013-03-09 05:40:00,
2013-03-08 22:45:00,23.9,21.2,29.68,NW,306,0.0,4.0,89,0.00,,,0.00,0.0,meteohub,2013-03-09 05:45:00,
2013-03-08 22:51:00,23.7,21.0,29.68,NW,306,0.0,4.0,89,0.00,,,0.00,0.0,meteohub,2013-03-09 05:51:00,
2013-03-08 22:56:00,23.7,21.0,29.68,NW,306,0.0,2.0,89,0.00,,,0.00,0.0,meteohub,2013-03-09 05:56:00,
2013-03-08 23:01:00,23.2,20.1,29.68,NW,306,2.0,5.0,88,0.00,,,0.00,0.0,meteohub,2013-03-09 06:01:00,
2013-03-08 23:06:00,22.8,20.1,29.68,NW,306,0.0,6.0,89,0.00,,,0.00,0.0,meteohub,2013-03-09 06:06:00,
2013-03-08 23:11:00,22.8,20.3,29.68,NW,306,0.0,6.0,90,0.00,,,0.00,0.0,meteohub,2013-03-09 06:11:00,
2013-03-08 23:17:00,22.8,20.3,29.67,NW,306,0.0,5.0,90,0.00,,,0.00,0.0,meteohub,2013-03-09 06:17:00,
2013-03-08 23:22:00,22.8,20.7,29.67,NW,306,0.0,0.0,91,0.00,,,0.00,0.0,meteohub,2013-03-09 06:22:00,
2013-03-08 23:27:00,22.8,20.7,29.67,NW,306,0.0,2.0,91,0.00,,,0.00,0.0,meteohub,2013-03-09 06:27:00,
2013-03-08 23:32:00,22.8,20.7,29.66,NW,306,0.0,2.0,91,0.00,,,0.00,0.0,meteohub,2013-03-09 06:32:00,
2013-03-08 23:37:00,22.6,20.5,29.65,NW,306,0.0,2.0,91,0.00,,,0.00,0.0,meteohub,2013-03-09 06:37:00,
2013-03-08 23:43:00,22.6,20.5,29.65,NW,306,0.0,0.0,91,0.00,,,0.00,0.0,meteohub,2013-03-09 06:43:00,
2013-03-08 23:48:00,22.5,20.3,29.65,North,-999,-999.0,0.0,91,0.00,,,0.00,0.0,meteohub,2013-03-09 06:48:00,
2013-03-08 23:53:00,22.5,20.5,29.65,NW,306,1.0,0.0,92,0.00,,,0.00,0.0,meteohub,2013-03-09 06:53:00,
2013-03-08 23:58:00,22.3,20.3,29.65,NW,306,0.0,2.0,92,0.00,,,0.00,0.0,meteohub,2013-03-09 06:58:00,